createdAt,value
2018-09-01T00:00:10.254Z,15.19
2018-09-01T00:01:10.725Z,15.24
2018-09-01T00:02:11.197Z,15.27
2018-09-01T00:03:11.670Z,15.34
2018-09-01T00:04:12.142Z,15.37
2018-09-01T00:05:12.614Z,15.39
2018-09-01T00:06:13.143Z,15.43
2018-09-01T00:07:13.560Z,15.45
2018-09-01T00:08:14.036Z,15.51
2018-09-01T00:09:14.505Z,15.51
2018-09-01T00:10:14.978Z,15.52
2018-09-01T00:11:15.465Z,15.53
2018-09-01T00:12:15.927Z,15.52
2018-09-01T00:13:16.397Z,15.50
2018-09-01T00:14:16.871Z,15.48
2018-09-01T00:15:17.344Z,15.44
2018-09-01T00:16:17.821Z,15.37
2018-09-01T00:17:18.293Z,15.27
2018-09-01T00:18:18.765Z,15.16
2018-09-01T00:19:19.238Z,15.06
2018-09-01T00:20:19.712Z,14.93
2018-09-01T00:21:20.184Z,14.79
2018-09-01T00:22:20.657Z,14.64
2018-09-01T00:23:21.133Z,14.49
2018-09-01T00:24:21.607Z,14.34
2018-09-01T00:25:22.076Z,14.21
2018-09-01T00:26:22.892Z,14.06
2018-09-01T00:27:23.024Z,13.90
2018-09-01T00:28:23.495Z,13.75
2018-09-01T00:29:23.966Z,13.59
2018-09-01T00:30:24.439Z,13.44
2018-09-01T00:31:24.911Z,13.26
2018-09-01T00:32:25.383Z,13.08
2018-09-01T00:33:25.858Z,12.90
2018-09-01T00:34:26.333Z,12.72
2018-09-01T00:35:26.798Z,12.57
2018-09-01T00:36:27.318Z,12.45
2018-09-01T00:37:27.755Z,12.36
2018-09-01T00:38:28.206Z,12.29
2018-09-01T00:39:28.677Z,12.26
2018-09-01T00:40:29.147Z,12.25
2018-09-01T00:41:29.620Z,12.26
2018-09-01T00:42:30.088Z,12.31
2018-09-01T00:43:30.557Z,12.34
2018-09-01T00:44:31.027Z,12.39
2018-09-01T00:45:31.496Z,12.41
2018-09-01T00:46:31.966Z,12.45
2018-09-01T00:47:32.438Z,12.52
2018-09-01T00:48:32.906Z,12.61
2018-09-01T00:49:33.375Z,12.70
2018-09-01T00:50:33.844Z,12.81
2018-09-01T00:51:34.315Z,12.91
2018-09-01T00:52:34.786Z,13.04
2018-09-01T00:53:35.255Z,13.16
2018-09-01T00:54:36.070Z,13.27
2018-09-01T00:55:36.193Z,13.36
2018-09-01T00:56:36.666Z,13.45
2018-09-01T00:57:37.131Z,13.55
2018-09-01T00:58:37.602Z,13.65
2018-09-01T00:59:38.072Z,13.72
2018-09-01T01:00:38.885Z,13.80
2018-09-01T01:01:39.011Z,13.89
2018-09-01T01:02:39.483Z,13.95
2018-09-01T01:03:39.954Z,14.07
2018-09-01T01:04:40.424Z,14.15
2018-09-01T01:05:40.894Z,14.23
2018-09-01T01:06:41.366Z,14.31
2018-09-01T01:07:41.845Z,14.38
2018-09-01T01:08:42.311Z,14.46
2018-09-01T01:09:42.784Z,14.51
2018-09-01T01:10:43.251Z,14.58
2018-09-01T01:11:43.720Z,14.64
2018-09-01T01:12:44.196Z,14.68
2018-09-01T01:13:44.662Z,14.77
2018-09-01T01:14:45.475Z,14.78
2018-09-01T01:15:45.607Z,14.83
2018-09-01T01:16:46.078Z,14.89
2018-09-01T01:17:46.549Z,14.90
2018-09-01T01:18:47.021Z,14.95
2018-09-01T01:19:47.496Z,14.96
2018-09-01T01:20:47.970Z,14.99
2018-09-01T01:21:48.441Z,15.01
2018-09-01T01:22:48.949Z,15.05
2018-09-01T01:23:49.383Z,15.08
2018-09-01T01:24:49.856Z,15.11
2018-09-01T01:25:50.329Z,15.12
2018-09-01T01:26:50.801Z,15.17
2018-09-01T01:27:51.274Z,15.19
2018-09-01T01:28:51.750Z,15.23
2018-09-01T01:29:52.222Z,15.30
2018-09-01T01:30:52.694Z,15.31
2018-09-01T01:31:53.217Z,15.31
2018-09-01T01:32:53.641Z,15.29
2018-09-01T01:33:54.113Z,15.25
2018-09-01T01:34:54.586Z,15.20
2018-09-01T01:35:55.059Z,15.13
2018-09-01T01:36:55.584Z,15.03
2018-09-01T01:37:56.007Z,14.91
2018-09-01T01:38:56.480Z,14.79
2018-09-01T01:39:56.953Z,14.66
2018-09-01T01:40:57.428Z,14.52
2018-09-01T01:41:57.898Z,14.35
2018-09-01T01:42:58.372Z,14.19
2018-09-01T01:43:58.845Z,14.05
2018-09-01T01:44:59.317Z,13.91
2018-09-01T01:45:59.790Z,13.75
2018-09-01T01:47:00.312Z,13.58
2018-09-01T01:48:00.734Z,13.44
2018-09-01T01:49:01.205Z,13.28
2018-09-01T01:50:01.678Z,13.10
2018-09-01T01:51:02.154Z,12.91
2018-09-01T01:52:02.620Z,12.72
2018-09-01T01:53:03.092Z,12.54
2018-09-01T01:54:03.561Z,12.40
2018-09-01T01:55:04.033Z,12.29
2018-09-01T01:56:04.503Z,12.21
2018-09-01T01:57:04.975Z,12.14
2018-09-01T01:58:05.445Z,12.11
2018-09-01T01:59:05.916Z,12.10
2018-09-01T02:00:06.386Z,12.13
2018-09-01T02:01:06.855Z,12.14
2018-09-01T02:02:07.375Z,12.18
2018-09-01T02:03:07.793Z,12.22
2018-09-01T02:04:08.266Z,12.28
2018-09-01T02:05:08.733Z,12.31
2018-09-01T02:06:09.201Z,12.40
2018-09-01T02:07:09.671Z,12.50
2018-09-01T02:08:10.144Z,12.58
2018-09-01T02:09:10.613Z,12.71
2018-09-01T02:10:11.081Z,12.84
2018-09-01T02:11:11.549Z,12.94
2018-09-01T02:12:12.019Z,13.07
2018-09-01T02:13:12.489Z,13.15
2018-09-01T02:14:12.960Z,13.26
2018-09-01T02:15:13.427Z,13.36
2018-09-01T02:16:13.900Z,13.47
2018-09-01T02:17:14.368Z,13.54
2018-09-01T02:18:14.838Z,13.64
2018-09-01T02:19:15.308Z,13.74
2018-09-01T02:20:15.787Z,13.81
2018-09-01T02:21:16.452Z,13.88
2018-09-01T02:22:16.718Z,13.96
2018-09-01T02:23:17.190Z,13.99
2018-09-01T02:24:17.660Z,14.05
2018-09-01T02:25:18.131Z,14.12
2018-09-01T02:26:18.602Z,14.20
2018-09-01T02:27:19.072Z,14.22
2018-09-01T02:28:19.544Z,14.30
2018-09-01T02:29:20.015Z,14.34
2018-09-01T02:30:20.484Z,14.38
2018-09-01T02:31:20.956Z,14.44
2018-09-01T02:32:21.478Z,14.48
2018-09-01T02:33:21.902Z,14.51
2018-09-01T02:34:22.371Z,14.54
2018-09-01T02:35:23.044Z,14.56
2018-09-01T02:36:23.316Z,14.62
2018-09-01T02:37:23.785Z,14.65
2018-09-01T02:38:24.258Z,14.68
2018-09-01T02:39:24.729Z,14.69
2018-09-01T02:40:25.202Z,14.74
2018-09-01T02:41:25.675Z,14.80
2018-09-01T02:42:26.147Z,14.79
2018-09-01T02:43:26.618Z,14.83
2018-09-01T02:44:27.091Z,14.85
2018-09-01T02:45:27.564Z,14.87
2018-09-01T02:46:28.035Z,14.89
2018-09-01T02:47:28.507Z,14.95
2018-09-01T02:48:28.980Z,14.93
2018-09-01T02:49:29.454Z,14.93
2018-09-01T02:50:29.926Z,14.94
2018-09-01T02:51:30.398Z,14.98
2018-09-01T02:52:30.876Z,14.98
2018-09-01T02:53:31.344Z,14.97
2018-09-01T02:54:31.819Z,14.96
2018-09-01T02:55:32.291Z,14.98
2018-09-01T02:56:32.766Z,14.95
2018-09-01T02:57:33.237Z,14.92
2018-09-01T02:58:33.709Z,14.88
2018-09-01T02:59:34.184Z,14.83
2018-09-01T03:00:34.997Z,14.75
2018-09-01T03:01:35.129Z,14.65
2018-09-01T03:02:35.602Z,14.53
2018-09-01T03:03:36.077Z,14.39
2018-09-01T03:04:36.549Z,14.26
2018-09-01T03:05:37.022Z,14.11
2018-09-01T03:06:37.493Z,13.95
2018-09-01T03:07:37.967Z,13.82
2018-09-01T03:08:38.439Z,13.68
2018-09-01T03:09:38.913Z,13.52
2018-09-01T03:10:39.384Z,13.37
2018-09-01T03:11:40.197Z,13.20
2018-09-01T03:12:40.380Z,13.03
2018-09-01T03:13:40.798Z,12.85
2018-09-01T03:14:41.271Z,12.66
2018-09-01T03:15:41.744Z,12.48
2018-09-01T03:16:42.554Z,12.29
2018-09-01T03:17:42.683Z,12.17
2018-09-01T03:18:43.157Z,12.08
2018-09-01T03:19:43.663Z,11.99
2018-09-01T03:20:44.095Z,11.92
2018-09-01T03:21:44.566Z,11.89
2018-09-01T03:22:45.035Z,11.89
2018-09-01T03:23:45.507Z,11.92
2018-09-01T03:24:45.976Z,11.91
2018-09-01T03:25:46.443Z,11.95
2018-09-01T03:26:46.913Z,11.97
2018-09-01T03:27:47.433Z,12.01
2018-09-01T03:28:47.852Z,12.08
2018-09-01T03:29:48.324Z,12.14
2018-09-01T03:30:48.792Z,12.19
2018-09-01T03:31:49.261Z,12.27
2018-09-01T03:32:49.729Z,12.37
2018-09-01T03:33:50.199Z,12.46
2018-09-01T03:34:50.668Z,12.54
2018-09-01T03:35:51.178Z,12.64
2018-09-01T03:36:51.609Z,12.74
2018-09-01T03:37:52.128Z,12.85
2018-09-01T03:38:52.546Z,12.94
2018-09-01T03:39:53.015Z,13.03
2018-09-01T03:40:53.484Z,13.11
2018-09-01T03:41:53.955Z,13.20
2018-09-01T03:42:54.425Z,13.28
2018-09-01T03:43:54.899Z,13.37
2018-09-01T03:44:55.365Z,13.43
2018-09-01T03:45:55.835Z,13.47
2018-09-01T03:46:56.345Z,13.54
2018-09-01T03:47:56.775Z,13.59
2018-09-01T03:48:57.248Z,13.68
2018-09-01T03:49:57.717Z,13.71
2018-09-01T03:50:58.188Z,13.76
2018-09-01T03:51:58.656Z,13.81
2018-09-01T03:52:59.126Z,13.88
2018-09-01T03:53:59.599Z,13.91
2018-09-01T03:55:00.068Z,13.96
2018-09-01T03:56:00.539Z,14.02
2018-09-01T03:57:01.012Z,14.05
2018-09-01T03:58:01.482Z,14.09
2018-09-01T03:59:01.955Z,14.13
2018-09-01T04:00:02.425Z,14.16
2018-09-01T04:01:02.896Z,14.19
2018-09-01T04:02:03.371Z,14.23
2018-09-01T04:03:03.840Z,14.26
2018-09-01T04:04:04.311Z,14.31
2018-09-01T04:05:04.782Z,14.35
2018-09-01T04:06:05.255Z,14.37
2018-09-01T04:07:05.730Z,14.38
2018-09-01T04:08:06.198Z,14.41
2018-09-01T04:09:06.671Z,14.45
2018-09-01T04:10:07.144Z,14.47
2018-09-01T04:11:07.614Z,14.49
2018-09-01T04:12:08.087Z,14.53
2018-09-01T04:13:08.563Z,14.54
2018-09-01T04:14:09.032Z,14.54
2018-09-01T04:15:09.504Z,14.55
2018-09-01T04:16:09.977Z,14.57
2018-09-01T04:17:10.449Z,14.59
2018-09-01T04:18:10.921Z,14.60
2018-09-01T04:19:11.396Z,14.64
2018-09-01T04:20:11.867Z,14.65
2018-09-01T04:21:12.339Z,14.68
2018-09-01T04:22:12.813Z,14.70
2018-09-01T04:23:13.338Z,14.73
2018-09-01T04:24:13.758Z,14.74
2018-09-01T04:25:14.231Z,14.74
2018-09-01T04:26:14.705Z,14.75
2018-09-01T04:27:15.179Z,14.73
2018-09-01T04:28:15.654Z,14.70
2018-09-01T04:29:16.125Z,14.63
2018-09-01T04:30:16.599Z,14.54
2018-09-01T04:31:17.072Z,14.45
2018-09-01T04:32:17.543Z,14.34
2018-09-01T04:33:18.017Z,14.23
2018-09-01T04:34:18.492Z,14.11
2018-09-01T04:35:18.961Z,13.95
2018-09-01T04:36:19.434Z,13.80
2018-09-01T04:37:19.911Z,13.64
2018-09-01T04:38:20.380Z,13.51
2018-09-01T04:39:20.853Z,13.37
2018-09-01T04:40:21.324Z,13.22
2018-09-01T04:41:21.797Z,13.09
2018-09-01T04:42:22.268Z,12.93
2018-09-01T04:43:22.740Z,12.76
2018-09-01T04:44:23.211Z,12.57
2018-09-01T04:45:23.684Z,12.38
2018-09-01T04:46:24.155Z,12.23
2018-09-01T04:47:24.623Z,12.11
2018-09-01T04:48:25.100Z,12.00
2018-09-01T04:49:25.567Z,11.91
2018-09-01T04:50:26.036Z,11.87
2018-09-01T04:51:26.505Z,11.85
2018-09-01T04:52:27.317Z,11.85
2018-09-01T04:53:27.454Z,11.86
2018-09-01T04:54:27.915Z,11.88
2018-09-01T04:55:28.388Z,11.91
2018-09-01T04:56:28.860Z,11.94
2018-09-01T04:57:29.324Z,12.00
2018-09-01T04:58:29.793Z,12.06
2018-09-01T04:59:30.262Z,12.12
2018-09-01T05:00:30.731Z,12.20
2018-09-01T05:01:31.200Z,12.26
2018-09-01T05:02:31.671Z,12.33
2018-09-01T05:03:32.139Z,12.44
2018-09-01T05:04:32.609Z,12.50
2018-09-01T05:05:33.078Z,12.59
2018-09-01T05:06:33.551Z,12.69
2018-09-01T05:07:34.023Z,12.80
2018-09-01T05:08:34.487Z,12.88
2018-09-01T05:09:34.958Z,13.00
2018-09-01T05:10:35.426Z,13.08
2018-09-01T05:11:35.896Z,13.13
2018-09-01T05:12:36.366Z,13.17
2018-09-01T05:13:36.834Z,13.24
2018-09-01T05:14:37.308Z,13.33
2018-09-01T05:15:37.776Z,13.40
2018-09-01T05:16:38.246Z,13.42
2018-09-01T05:17:38.717Z,13.50
2018-09-01T05:18:39.187Z,13.54
2018-09-01T05:19:39.660Z,13.58
2018-09-01T05:20:40.126Z,13.63
2018-09-01T05:21:40.598Z,13.64
2018-09-01T05:22:41.069Z,13.71
2018-09-01T05:23:41.539Z,13.76
2018-09-01T05:24:42.014Z,13.80
2018-09-01T05:25:42.481Z,13.84
2018-09-01T05:26:42.951Z,13.88
2018-09-01T05:27:43.423Z,13.92
2018-09-01T05:28:43.894Z,13.96
2018-09-01T05:29:44.366Z,14.01
2018-09-01T05:30:44.840Z,14.04
2018-09-01T05:31:45.308Z,14.09
2018-09-01T05:32:45.779Z,14.13
2018-09-01T05:33:46.250Z,14.18
2018-09-01T05:34:46.723Z,14.22
2018-09-01T05:35:47.193Z,14.26
2018-09-01T05:36:47.665Z,14.28
2018-09-01T05:37:48.137Z,14.34
2018-09-01T05:38:48.659Z,14.36
2018-09-01T05:39:49.088Z,14.39
2018-09-01T05:40:49.554Z,14.42
2018-09-01T05:41:50.026Z,14.45
2018-09-01T05:42:50.498Z,14.50
2018-09-01T05:43:51.009Z,14.53
2018-09-01T05:44:51.442Z,14.57
2018-09-01T05:45:51.914Z,14.59
2018-09-01T05:46:52.391Z,14.60
2018-09-01T05:47:52.859Z,14.63
2018-09-01T05:48:53.330Z,14.65
2018-09-01T05:49:53.803Z,14.68
2018-09-01T05:50:54.296Z,14.71
2018-09-01T05:51:54.750Z,14.70
2018-09-01T05:52:55.226Z,14.72
2018-09-01T05:53:55.695Z,14.74
2018-09-01T05:54:56.169Z,14.76
2018-09-01T05:55:56.642Z,14.77
2018-09-01T05:56:57.114Z,14.79
2018-09-01T05:57:57.587Z,14.79
2018-09-01T05:58:58.063Z,14.78
2018-09-01T05:59:58.533Z,14.74
2018-09-01T06:00:59.008Z,14.66
2018-09-01T06:01:59.480Z,14.56
2018-09-01T06:02:59.952Z,14.45
2018-09-01T06:04:00.427Z,14.33
2018-09-01T06:05:00.900Z,14.21
2018-09-01T06:06:01.431Z,14.06
2018-09-01T06:07:01.844Z,13.91
2018-09-01T06:08:02.318Z,13.76
2018-09-01T06:09:02.788Z,13.60
2018-09-01T06:10:03.263Z,13.46
2018-09-01T06:11:03.733Z,13.30
2018-09-01T06:12:04.206Z,13.15
2018-09-01T06:13:04.678Z,13.00
2018-09-01T06:14:05.151Z,12.84
2018-09-01T06:15:05.622Z,12.67
2018-09-01T06:16:06.095Z,12.50
2018-09-01T06:17:06.565Z,12.34
2018-09-01T06:18:07.035Z,12.20
2018-09-01T06:19:07.526Z,12.10
2018-09-01T06:20:07.977Z,12.02
2018-09-01T06:21:08.447Z,11.95
2018-09-01T06:22:08.915Z,11.91
2018-09-01T06:23:09.386Z,11.88
2018-09-01T06:24:09.856Z,11.90
2018-09-01T06:25:10.327Z,11.90
2018-09-01T06:26:10.796Z,11.93
2018-09-01T06:27:11.265Z,11.95
2018-09-01T06:28:11.737Z,11.99
2018-09-01T06:29:12.256Z,12.04
2018-09-01T06:30:12.787Z,12.11
2018-09-01T06:31:13.154Z,12.17
2018-09-01T06:32:13.612Z,12.24
2018-09-01T06:33:14.083Z,12.35
2018-09-01T06:34:14.558Z,12.43
2018-09-01T06:35:15.023Z,12.56
2018-09-01T06:36:15.490Z,12.65
2018-09-01T06:37:15.959Z,12.77
2018-09-01T06:38:16.433Z,12.88
2018-09-01T06:39:16.899Z,12.96
2018-09-01T06:40:17.369Z,13.03
2018-09-01T06:41:17.839Z,13.12
2018-09-01T06:42:18.308Z,13.21
2018-09-01T06:43:18.777Z,13.30
2018-09-01T06:44:19.248Z,13.38
2018-09-01T06:45:19.717Z,13.45
2018-09-01T06:46:20.187Z,13.52
2018-09-01T06:47:20.660Z,13.59
2018-09-01T06:48:21.136Z,13.66
2018-09-01T06:49:21.598Z,13.72
2018-09-01T06:50:22.071Z,13.79
2018-09-01T06:51:22.585Z,13.85
2018-09-01T06:52:23.010Z,13.91
2018-09-01T06:53:23.482Z,13.99
2018-09-01T06:54:24.002Z,14.05
2018-09-01T06:55:24.423Z,14.11
2018-09-01T06:56:24.896Z,14.13
2018-09-01T06:57:25.398Z,14.18
2018-09-01T06:58:25.837Z,14.20
2018-09-01T06:59:26.311Z,14.24
2018-09-01T07:00:26.779Z,14.27
2018-09-01T07:01:27.253Z,14.32
2018-09-01T07:02:27.723Z,14.33
2018-09-01T07:03:28.194Z,14.38
2018-09-01T07:04:28.664Z,14.41
2018-09-01T07:05:29.138Z,14.47
2018-09-01T07:06:29.609Z,14.48
2018-09-01T07:07:30.087Z,14.52
2018-09-01T07:08:30.553Z,14.55
2018-09-01T07:09:31.033Z,14.58
2018-09-01T07:10:31.496Z,14.60
2018-09-01T07:11:31.970Z,14.61
2018-09-01T07:12:32.444Z,14.63
2018-09-01T07:13:32.914Z,14.70
2018-09-01T07:14:33.388Z,14.74
2018-09-01T07:15:33.859Z,14.75
2018-09-01T07:16:34.333Z,14.77
2018-09-01T07:17:34.805Z,14.81
2018-09-01T07:18:35.279Z,14.81
2018-09-01T07:19:35.749Z,14.85
2018-09-01T07:20:36.226Z,14.88
2018-09-01T07:21:36.702Z,14.91
2018-09-01T07:22:37.169Z,14.91
2018-09-01T07:23:37.641Z,14.96
2018-09-01T07:24:38.114Z,14.98
2018-09-01T07:25:38.588Z,14.98
2018-09-01T07:26:39.062Z,14.98
2018-09-01T07:27:39.537Z,14.98
2018-09-01T07:28:40.006Z,14.94
2018-09-01T07:29:40.486Z,14.86
2018-09-01T07:30:41.085Z,14.78
2018-09-01T07:31:41.429Z,14.70
2018-09-01T07:32:41.937Z,14.59
2018-09-01T07:33:42.374Z,14.46
2018-09-01T07:34:42.848Z,14.33
2018-09-01T07:35:43.322Z,14.18
2018-09-01T07:36:43.793Z,14.04
2018-09-01T07:37:44.266Z,13.91
2018-09-01T07:38:44.738Z,13.78
2018-09-01T07:39:45.213Z,13.63
2018-09-01T07:40:45.683Z,13.49
2018-09-01T07:41:46.155Z,13.34
2018-09-01T07:42:46.630Z,13.19
2018-09-01T07:43:47.100Z,13.03
2018-09-01T07:44:47.572Z,12.85
2018-09-01T07:45:48.042Z,12.65
2018-09-01T07:46:48.514Z,12.48
2018-09-01T07:47:48.984Z,12.32
2018-09-01T07:48:49.453Z,12.23
2018-09-01T07:49:49.939Z,12.14
2018-09-01T07:50:50.397Z,12.08
2018-09-01T07:51:50.866Z,12.04
2018-09-01T07:52:51.336Z,12.05
2018-09-01T07:53:51.811Z,12.08
2018-09-01T07:54:52.275Z,12.09
2018-09-01T07:55:52.758Z,12.11
2018-09-01T07:56:53.216Z,12.14
2018-09-01T07:57:53.684Z,12.19
2018-09-01T07:58:54.177Z,12.27
2018-09-01T07:59:54.623Z,12.34
2018-09-01T08:00:55.095Z,12.42
2018-09-01T08:01:55.564Z,12.49
2018-09-01T08:02:56.032Z,12.59
2018-09-01T08:03:56.507Z,12.66
2018-09-01T08:04:56.971Z,12.76
2018-09-01T08:05:57.442Z,12.87
2018-09-01T08:06:57.909Z,13.01
2018-09-01T08:07:58.382Z,13.12
2018-09-01T08:08:58.850Z,13.24
2018-09-01T08:09:59.321Z,13.33
2018-09-01T08:10:59.790Z,13.41
2018-09-01T08:12:00.261Z,13.52
2018-09-01T08:13:00.730Z,13.62
2018-09-01T08:14:01.343Z,13.70
2018-09-01T08:15:01.673Z,13.79
2018-09-01T08:16:02.141Z,13.86
2018-09-01T08:17:02.610Z,13.94
2018-09-01T08:18:03.081Z,14.02
2018-09-01T08:19:03.553Z,14.09
2018-09-01T08:20:04.025Z,14.17
2018-09-01T08:21:04.494Z,14.24
2018-09-01T08:22:04.963Z,14.30
2018-09-01T08:23:05.440Z,14.34
2018-09-01T08:24:05.907Z,14.40
2018-09-01T08:25:06.377Z,14.44
2018-09-01T08:26:06.925Z,14.51
2018-09-01T08:27:07.319Z,14.59
2018-09-01T08:28:07.793Z,14.60
2018-09-01T08:29:08.263Z,14.64
2018-09-01T08:30:08.734Z,14.71
2018-09-01T08:31:09.205Z,14.75
2018-09-01T08:32:09.679Z,14.76
2018-09-01T08:33:10.150Z,14.79
2018-09-01T08:34:10.624Z,14.85
2018-09-01T08:35:11.146Z,14.87
2018-09-01T08:36:11.567Z,14.91
2018-09-01T08:37:12.037Z,14.96
2018-09-01T08:38:12.511Z,14.98
2018-09-01T08:39:12.983Z,15.00
2018-09-01T08:40:13.504Z,15.03
2018-09-01T08:41:13.927Z,15.04
2018-09-01T08:42:14.400Z,15.08
2018-09-01T08:43:14.873Z,15.12
2018-09-01T08:44:15.347Z,15.12
2018-09-01T08:45:15.824Z,15.15
2018-09-01T08:46:16.292Z,15.18
2018-09-01T08:47:16.763Z,15.21
2018-09-01T08:48:17.239Z,15.23
2018-09-01T08:49:17.713Z,15.28
2018-09-01T08:50:18.184Z,15.32
2018-09-01T08:51:18.658Z,15.33
2018-09-01T08:52:19.133Z,15.34
2018-09-01T08:53:19.604Z,15.35
2018-09-01T08:54:20.078Z,15.32
2018-09-01T08:55:20.551Z,15.25
2018-09-01T08:56:21.027Z,15.16
2018-09-01T08:57:21.498Z,15.06
2018-09-01T08:58:21.971Z,14.94
2018-09-01T08:59:22.450Z,14.81
2018-09-01T09:00:22.920Z,14.69
2018-09-01T09:01:23.392Z,14.56
2018-09-01T09:02:23.865Z,14.45
2018-09-01T09:03:24.338Z,14.34
2018-09-01T09:04:24.810Z,14.21
2018-09-01T09:05:25.337Z,14.06
2018-09-01T09:06:25.755Z,13.90
2018-09-01T09:07:26.229Z,13.77
2018-09-01T09:08:26.703Z,13.62
2018-09-01T09:09:27.172Z,13.48
2018-09-01T09:10:27.646Z,13.32
2018-09-01T09:11:28.119Z,13.18
2018-09-01T09:12:28.588Z,13.03
2018-09-01T09:13:29.057Z,12.90
2018-09-01T09:14:29.529Z,12.82
2018-09-01T09:15:29.998Z,12.75
2018-09-01T09:16:30.476Z,12.69
2018-09-01T09:17:30.940Z,12.66
2018-09-01T09:18:31.424Z,12.65
2018-09-01T09:19:31.882Z,12.70
2018-09-01T09:20:32.351Z,12.76
2018-09-01T09:21:32.821Z,12.80
2018-09-01T09:22:33.290Z,12.86
2018-09-01T09:23:33.764Z,12.92
2018-09-01T09:24:34.233Z,12.98
2018-09-01T09:25:34.702Z,13.07
2018-09-01T09:26:35.172Z,13.14
2018-09-01T09:27:35.642Z,13.25
2018-09-01T09:28:36.112Z,13.38
2018-09-01T09:29:36.584Z,13.47
2018-09-01T09:30:37.049Z,13.60
2018-09-01T09:31:37.521Z,13.75
2018-09-01T09:32:37.993Z,13.87
2018-09-01T09:33:38.462Z,13.97
2018-09-01T09:34:38.940Z,14.13
2018-09-01T09:35:39.403Z,14.25
2018-09-01T09:36:39.875Z,14.34
2018-09-01T09:37:40.344Z,14.43
2018-09-01T09:38:40.817Z,14.53
2018-09-01T09:39:41.284Z,14.62
2018-09-01T09:40:41.757Z,14.70
2018-09-01T09:41:42.232Z,14.81
2018-09-01T09:42:42.700Z,14.91
2018-09-01T09:43:43.168Z,15.00
2018-09-01T09:44:43.642Z,15.09
2018-09-01T09:45:44.114Z,15.19
2018-09-01T09:46:44.582Z,15.27
2018-09-01T09:47:45.056Z,15.38
2018-09-01T09:48:45.530Z,15.46
2018-09-01T09:49:45.999Z,15.54
2018-09-01T09:50:46.471Z,15.65
2018-09-01T09:51:46.946Z,15.74
2018-09-01T09:52:47.417Z,15.85
2018-09-01T09:53:47.888Z,15.95
2018-09-01T09:54:48.363Z,16.01
2018-09-01T09:55:48.834Z,16.10
2018-09-01T09:56:49.307Z,16.18
2018-09-01T09:57:49.779Z,16.25
2018-09-01T09:58:50.253Z,16.35
2018-09-01T09:59:50.727Z,16.37
2018-09-01T10:00:51.260Z,16.42
2018-09-01T10:01:51.672Z,16.44
2018-09-01T10:02:52.147Z,16.46
2018-09-01T10:03:52.621Z,16.45
2018-09-01T10:04:53.096Z,16.44
2018-09-01T10:05:53.618Z,16.42
2018-09-01T10:06:54.041Z,16.34
2018-09-01T10:07:54.518Z,16.24
2018-09-01T10:08:54.990Z,16.14
2018-09-01T10:09:55.464Z,16.03
2018-09-01T10:10:55.947Z,15.90
2018-09-01T10:11:56.415Z,15.77
2018-09-01T10:12:56.887Z,15.64
2018-09-01T10:13:57.360Z,15.51
2018-09-01T10:14:57.833Z,15.39
2018-09-01T10:15:58.446Z,15.26
2018-09-01T10:16:58.783Z,15.14
2018-09-01T10:17:59.252Z,15.02
2018-09-01T10:18:59.727Z,14.89
2018-09-01T10:20:00.216Z,14.75
2018-09-01T10:21:00.673Z,14.62
2018-09-01T10:22:01.147Z,14.49
2018-09-01T10:23:01.617Z,14.36
2018-09-01T10:24:02.088Z,14.23
2018-09-01T10:25:02.562Z,14.11
2018-09-01T10:26:03.032Z,13.98
2018-09-01T10:27:03.559Z,13.87
2018-09-01T10:28:03.976Z,13.76
2018-09-01T10:29:04.447Z,13.67
2018-09-01T10:30:04.918Z,13.60
2018-09-01T10:31:05.389Z,13.56
2018-09-01T10:32:05.861Z,13.54
2018-09-01T10:33:06.348Z,13.54
2018-09-01T10:34:06.801Z,13.56
2018-09-01T10:35:07.272Z,13.61
2018-09-01T10:36:07.741Z,13.70
2018-09-01T10:37:08.213Z,13.78
2018-09-01T10:38:08.683Z,13.87
2018-09-01T10:39:09.154Z,13.96
2018-09-01T10:40:09.830Z,14.07
2018-09-01T10:41:10.103Z,14.17
2018-09-01T10:42:10.566Z,14.27
2018-09-01T10:43:11.035Z,14.40
2018-09-01T10:44:11.505Z,14.54
2018-09-01T10:45:11.977Z,14.68
2018-09-01T10:46:12.471Z,14.80
2018-09-01T10:47:12.918Z,14.92
2018-09-01T10:48:13.406Z,15.05
2018-09-01T10:49:13.859Z,15.15
2018-09-01T10:50:14.329Z,15.28
2018-09-01T10:51:14.800Z,15.40
2018-09-01T10:52:15.269Z,15.50
2018-09-01T10:53:15.743Z,15.61
2018-09-01T10:54:16.218Z,15.71
2018-09-01T10:55:16.686Z,15.81
2018-09-01T10:56:17.156Z,15.93
2018-09-01T10:57:17.629Z,16.04
2018-09-01T10:58:18.101Z,16.15
2018-09-01T10:59:18.639Z,16.24
2018-09-01T11:00:19.046Z,16.36
2018-09-01T11:01:19.519Z,16.47
2018-09-01T11:02:19.990Z,16.56
2018-09-01T11:03:20.467Z,16.64
2018-09-01T11:04:21.140Z,16.73
2018-09-01T11:05:21.488Z,16.79
2018-09-01T11:06:21.882Z,16.83
2018-09-01T11:07:22.355Z,16.92
2018-09-01T11:08:22.831Z,16.94
2018-09-01T11:09:23.303Z,16.97
2018-09-01T11:10:23.776Z,17.00
2018-09-01T11:11:24.250Z,17.02
2018-09-01T11:12:24.730Z,17.01
2018-09-01T11:13:25.201Z,16.99
2018-09-01T11:14:25.673Z,16.93
2018-09-01T11:15:26.168Z,16.86
2018-09-01T11:16:26.623Z,16.79
2018-09-01T11:17:27.103Z,16.68
2018-09-01T11:18:27.568Z,16.56
2018-09-01T11:19:28.046Z,16.44
2018-09-01T11:20:28.518Z,16.33
2018-09-01T11:21:28.992Z,16.23
2018-09-01T11:22:29.464Z,16.12
2018-09-01T11:23:29.939Z,16.01
2018-09-01T11:24:30.415Z,15.90
2018-09-01T11:25:30.887Z,15.79
2018-09-01T11:26:31.364Z,15.68
2018-09-01T11:27:31.910Z,15.56
2018-09-01T11:28:32.308Z,15.45
2018-09-01T11:29:32.779Z,15.31
2018-09-01T11:30:33.253Z,15.18
2018-09-01T11:31:33.726Z,15.07
2018-09-01T11:32:34.199Z,14.98
2018-09-01T11:33:34.671Z,14.87
2018-09-01T11:34:35.184Z,14.78
2018-09-01T11:35:35.615Z,14.69
2018-09-01T11:36:36.095Z,14.58
2018-09-01T11:37:36.574Z,14.48
2018-09-01T11:38:37.028Z,14.37
2018-09-01T11:39:37.501Z,14.28
2018-09-01T11:40:37.972Z,14.21
2018-09-01T11:41:38.442Z,14.16
2018-09-01T11:42:39.029Z,14.14
2018-09-01T11:43:39.385Z,14.14
2018-09-01T11:44:39.857Z,14.17
2018-09-01T11:45:40.328Z,14.22
2018-09-01T11:46:40.798Z,14.29
2018-09-01T11:47:41.273Z,14.39
2018-09-01T11:48:41.751Z,14.50
2018-09-01T11:49:42.213Z,14.61
2018-09-01T11:50:42.681Z,14.74
2018-09-01T11:51:43.151Z,14.85
2018-09-01T11:52:43.623Z,15.00
2018-09-01T11:53:44.145Z,15.14
2018-09-01T11:54:44.574Z,15.27
2018-09-01T11:55:45.034Z,15.41
2018-09-01T11:56:45.506Z,15.54
2018-09-01T11:57:45.975Z,15.67
2018-09-01T11:58:46.467Z,15.81
2018-09-01T11:59:46.917Z,15.93
2018-09-01T12:00:47.389Z,16.05
2018-09-01T12:01:47.864Z,16.16
2018-09-01T12:02:48.333Z,16.28
2018-09-01T12:03:48.813Z,16.38
2018-09-01T12:04:49.278Z,16.49
2018-09-01T12:05:49.749Z,16.62
2018-09-01T12:06:50.221Z,16.73
2018-09-01T12:07:50.692Z,16.84
2018-09-01T12:08:51.199Z,16.96
2018-09-01T12:09:51.639Z,17.08
2018-09-01T12:10:52.112Z,17.21
2018-09-01T12:11:52.618Z,17.31
2018-09-01T12:12:53.058Z,17.42
2018-09-01T12:13:53.550Z,17.53
2018-09-01T12:14:54.005Z,17.58
2018-09-01T12:15:54.529Z,17.61
2018-09-01T12:16:54.954Z,17.64
2018-09-01T12:17:55.430Z,17.66
2018-09-01T12:18:55.901Z,17.66
2018-09-01T12:19:56.378Z,17.63
2018-09-01T12:20:56.852Z,17.59
2018-09-01T12:21:57.325Z,17.50
2018-09-01T12:22:57.798Z,17.41
2018-09-01T12:23:58.275Z,17.32
2018-09-01T12:24:58.749Z,17.22
2018-09-01T12:25:59.222Z,17.13
2018-09-01T12:26:59.700Z,17.02
2018-09-01T12:28:00.171Z,16.92
2018-09-01T12:29:00.646Z,16.82
2018-09-01T12:30:01.121Z,16.71
2018-09-01T12:31:01.593Z,16.59
2018-09-01T12:32:02.073Z,16.47
2018-09-01T12:33:02.544Z,16.34
2018-09-01T12:34:03.021Z,16.21
2018-09-01T12:35:03.492Z,16.08
2018-09-01T12:36:04.012Z,15.95
2018-09-01T12:37:04.486Z,15.81
2018-09-01T12:38:04.909Z,15.70
2018-09-01T12:39:05.382Z,15.59
2018-09-01T12:40:05.862Z,15.47
2018-09-01T12:41:06.328Z,15.36
2018-09-01T12:42:06.894Z,15.26
2018-09-01T12:43:07.274Z,15.16
2018-09-01T12:44:07.745Z,15.06
2018-09-01T12:45:08.220Z,14.97
2018-09-01T12:46:08.689Z,14.88
2018-09-01T12:47:09.160Z,14.79
2018-09-01T12:48:09.631Z,14.71
2018-09-01T12:49:10.104Z,14.63
2018-09-01T12:50:10.576Z,14.55
2018-09-01T12:51:11.046Z,14.49
2018-09-01T12:52:11.567Z,14.46
2018-09-01T12:53:12.090Z,14.47
2018-09-01T12:54:12.460Z,14.49
2018-09-01T12:55:12.929Z,14.53
2018-09-01T12:56:13.402Z,14.59
2018-09-01T12:57:13.870Z,14.68
2018-09-01T12:58:14.347Z,14.78